createdAt,value
2023-03-31T00:01:47.640Z,1.20
2023-03-31T00:04:46.685Z,1.10
2023-03-31T00:07:06.485Z,1.13
2023-03-31T00:09:51.919Z,1.05
2023-03-31T00:12:26.234Z,0.95
2023-03-31T00:15:06.539Z,1.10
2023-03-31T00:18:49.078Z,0.80
2023-03-31T00:21:03.960Z,0.85
2023-03-31T00:23:34.040Z,0.70
2023-03-31T00:28:51.940Z,0.60
2023-03-31T00:31:47.611Z,1.55
2023-03-31T00:34:17.316Z,1.00
2023-03-31T00:37:06.962Z,0.98
2023-03-31T00:39:35.912Z,0.93
2023-03-31T00:42:11.738Z,0.90
2023-03-31T00:48:15.620Z,1.00
2023-03-31T00:48:42.309Z,0.80
2023-03-31T00:51:15.087Z,0.88
2023-03-31T00:53:43.238Z,0.90
2023-03-31T00:56:15.796Z,1.02
2023-03-31T00:58:47.324Z,1.05
2023-03-31T01:01:21.818Z,1.65
2023-03-31T01:03:50.895Z,0.90
2023-03-31T01:06:21.969Z,1.50
2023-03-31T01:08:54.869Z,0.70
2023-03-31T01:11:28.228Z,0.75
2023-03-31T01:13:57.542Z,0.70
2023-03-31T01:16:28.255Z,0.70
2023-03-31T01:19:00.939Z,0.90
2023-03-31T01:25:31.425Z,0.95
2023-03-31T01:28:36.268Z,0.85
2023-03-31T01:31:51.418Z,0.90
2023-03-31T01:34:21.588Z,1.10
2023-03-31T01:37:25.942Z,0.90
2023-03-31T01:40:15.809Z,1.02
2023-03-31T01:43:04.355Z,1.00
2023-03-31T01:45:54.106Z,0.77
2023-03-31T01:48:31.181Z,0.80
2023-03-31T01:51:03.602Z,0.77
2023-03-31T01:53:38.073Z,0.98
2023-03-31T01:56:31.919Z,0.98
2023-03-31T01:59:41.587Z,0.88
2023-03-31T02:02:15.839Z,0.77
2023-03-31T02:04:58.154Z,0.60
2023-03-31T02:07:35.937Z,0.90
2023-03-31T02:10:12.460Z,0.98
2023-03-31T02:12:44.204Z,0.70
2023-03-31T02:15:18.925Z,0.60
2023-03-31T02:17:56.282Z,0.75
2023-03-31T02:20:28.458Z,0.80
2023-03-31T02:23:03.797Z,1.05
2023-03-31T02:28:45.966Z,0.80
2023-03-31T02:31:30.619Z,0.80
2023-03-31T02:34:08.276Z,0.90
2023-03-31T02:36:36.384Z,1.65
2023-03-31T02:39:10.625Z,0.95
2023-03-31T02:41:53.920Z,1.00
2023-03-31T02:44:29.161Z,1.20
2023-03-31T02:47:18.457Z,1.10
2023-03-31T02:49:55.036Z,0.90
2023-03-31T02:53:05.240Z,1.10
2023-03-31T02:55:48.733Z,0.98
2023-03-31T02:58:52.110Z,1.08
2023-03-31T03:02:27.282Z,1.20
2023-03-31T03:05:36.483Z,0.80
2023-03-31T03:08:29.191Z,0.70
2023-03-31T03:11:13.112Z,0.88
2023-03-31T03:14:39.911Z,1.13
2023-03-31T03:17:45.273Z,0.90
2023-03-31T03:20:52.566Z,0.70
2023-03-31T03:23:26.406Z,0.77
2023-03-31T03:28:52.331Z,1.20
2023-03-31T03:31:31.615Z,1.60
2023-03-31T03:37:22.671Z,1.35
2023-03-31T03:40:19.122Z,1.20
2023-03-31T03:45:51.882Z,1.25
2023-03-31T03:48:19.805Z,0.93
2023-03-31T03:50:47.586Z,1.70
2023-03-31T03:53:15.874Z,1.30
2023-03-31T03:55:42.653Z,1.20
2023-03-31T03:58:09.454Z,1.27
2023-03-31T04:00:36.258Z,1.20
2023-03-31T04:03:03.933Z,1.38
2023-03-31T04:05:31.830Z,1.13
2023-03-31T04:08:02.119Z,1.45
2023-03-31T04:10:29.476Z,2.10
2023-03-31T04:12:56.667Z,1.70
2023-03-31T04:15:23.410Z,1.45
2023-03-31T04:17:54.924Z,1.40
2023-03-31T04:20:21.819Z,1.35
2023-03-31T04:22:53.870Z,1.58
2023-03-31T04:25:23.970Z,2.65
2023-03-31T04:27:55.266Z,2.30
2023-03-31T04:30:31.153Z,2.42
2023-03-31T04:33:04.518Z,2.80
2023-03-31T04:35:53.041Z,3.90
2023-03-31T04:38:24.495Z,2.40
2023-03-31T04:40:53.409Z,3.08
2023-03-31T04:43:21.693Z,2.78
2023-03-31T04:45:48.780Z,2.70
2023-03-31T04:48:16.230Z,3.25
2023-03-31T04:50:47.333Z,2.50
2023-03-31T04:53:13.983Z,2.80
2023-03-31T04:55:50.910Z,3.00
2023-03-31T04:58:18.021Z,2.70
2023-03-31T05:00:48.086Z,2.50
2023-03-31T05:03:20.820Z,2.47
2023-03-31T05:05:47.721Z,2.53
2023-03-31T05:08:14.686Z,2.63
2023-03-31T05:10:51.326Z,2.15
2023-03-31T05:13:18.739Z,1.98
2023-03-31T05:15:48.285Z,2.20
2023-03-31T05:18:18.621Z,2.55
2023-03-31T05:20:45.819Z,2.08
2023-03-31T05:23:13.720Z,1.58
2023-03-31T05:28:11.118Z,1.60
2023-03-31T05:30:37.920Z,2.05
2023-03-31T05:33:08.243Z,1.20
2023-03-31T05:35:37.669Z,1.65
2023-03-31T05:38:08.564Z,1.70
2023-03-31T05:40:36.294Z,1.50
2023-03-31T05:43:03.538Z,3.92
2023-03-31T05:45:36.808Z,4.15
2023-03-31T05:48:04.592Z,4.88
2023-03-31T05:50:38.676Z,6.38
2023-03-31T05:53:06.518Z,6.07
2023-03-31T05:55:39.234Z,6.10
2023-03-31T05:58:07.214Z,6.10
2023-03-31T06:03:08.162Z,4.53
2023-03-31T06:05:36.120Z,5.60
2023-03-31T06:08:04.317Z,6.55
2023-03-31T06:10:31.481Z,6.15
2023-03-31T06:12:58.241Z,7.33
2023-03-31T06:15:35.636Z,6.57
2023-03-31T06:18:02.912Z,5.85
2023-03-31T06:20:30.233Z,6.65
2023-03-31T06:22:59.874Z,6.55
2023-03-31T06:25:37.133Z,7.28
2023-03-31T06:28:11.240Z,7.32
2023-03-31T06:30:42.036Z,7.60
2023-03-31T06:33:09.978Z,8.18
2023-03-31T06:38:11.069Z,8.52
2023-03-31T06:40:41.284Z,7.80
2023-03-31T06:43:08.365Z,8.27
2023-03-31T06:45:37.925Z,7.67
2023-03-31T06:48:05.799Z,8.27
2023-03-31T06:50:36.549Z,7.38
2023-03-31T06:53:04.891Z,7.85
2023-03-31T06:58:01.453Z,7.75
2023-03-31T07:00:33.087Z,7.32
2023-03-31T07:03:02.344Z,7.93
2023-03-31T07:05:30.805Z,8.10
2023-03-31T07:07:59.668Z,9.98
2023-03-31T07:10:30.093Z,9.40
2023-03-31T07:13:04.490Z,8.82
2023-03-31T07:15:32.827Z,9.10
2023-03-31T07:18:02.988Z,9.15
2023-03-31T07:20:32.518Z,8.38
2023-03-31T07:22:59.438Z,7.57
2023-03-31T07:26:04.424Z,6.22
2023-03-31T07:28:35.617Z,5.82
2023-03-31T07:31:03.174Z,6.60
2023-03-31T07:33:31.558Z,5.38
2023-03-31T07:36:10.873Z,5.05
2023-03-31T07:38:41.745Z,5.47
2023-03-31T07:41:14.381Z,6.25
2023-03-31T07:43:45.422Z,5.30
2023-03-31T07:46:24.517Z,6.18
2023-03-31T07:48:58.809Z,5.47
2023-03-31T07:51:27.968Z,5.95
2023-03-31T07:53:55.150Z,7.20
2023-03-31T07:56:28.191Z,7.03
2023-03-31T07:58:57.745Z,7.38
2023-03-31T08:01:26.441Z,6.68
2023-03-31T08:03:55.863Z,7.43
2023-03-31T08:06:25.269Z,6.60
2023-03-31T08:08:55.312Z,6.80
2023-03-31T08:11:22.355Z,7.32
2023-03-31T08:13:53.466Z,7.53
2023-03-31T08:16:21.432Z,6.70
2023-03-31T08:18:48.349Z,6.20
2023-03-31T08:21:20.154Z,5.82
2023-03-31T08:23:48.680Z,5.68
2023-03-31T08:26:22.401Z,5.97
2023-03-31T08:28:49.508Z,5.45
2023-03-31T08:31:22.218Z,5.70
2023-03-31T08:33:50.096Z,6.07
2023-03-31T08:36:17.547Z,6.18
2023-03-31T08:38:54.664Z,6.40
2023-03-31T08:41:50.446Z,5.70
2023-03-31T08:44:28.121Z,5.22
2023-03-31T08:49:25.162Z,4.50
2023-03-31T08:52:01.284Z,4.50
2023-03-31T08:54:49.641Z,4.65
2023-03-31T08:57:22.371Z,4.13
2023-03-31T08:59:51.251Z,4.80
2023-03-31T09:02:56.024Z,5.18
2023-03-31T09:05:59.547Z,3.15
2023-03-31T09:08:45.247Z,3.00
2023-03-31T09:11:39.435Z,3.33
2023-03-31T09:14:20.667Z,4.15
2023-03-31T09:16:47.914Z,2.78
2023-03-31T09:19:25.461Z,2.92
2023-03-31T09:21:56.649Z,4.18
2023-03-31T09:24:32.751Z,9.30
2023-03-31T09:27:05.921Z,3.53
2023-03-31T09:29:48.461Z,3.60
2023-03-31T09:32:32.572Z,3.05
2023-03-31T09:35:13.322Z,3.60
2023-03-31T09:37:40.391Z,2.08
2023-03-31T09:40:23.098Z,3.13
2023-03-31T09:43:22.821Z,4.28
2023-03-31T09:48:29.858Z,3.78
2023-03-31T09:51:23.443Z,3.42
2023-03-31T09:54:27.148Z,2.47
2023-03-31T09:56:54.753Z,2.47
2023-03-31T09:59:34.773Z,2.30
2023-03-31T10:02:05.819Z,2.08
2023-03-31T10:04:35.554Z,2.22
2023-03-31T10:07:05.253Z,1.92
2023-03-31T10:09:34.586Z,2.90
2023-03-31T10:12:16.531Z,3.20
2023-03-31T10:14:54.022Z,3.50
2023-03-31T10:17:24.102Z,2.90
2023-03-31T10:20:08.103Z,2.22
2023-03-31T10:22:44.859Z,2.08
2023-03-31T10:25:30.323Z,1.80
2023-03-31T10:27:58.301Z,1.90
2023-03-31T10:30:36.059Z,2.53
2023-03-31T10:33:22.691Z,2.22
2023-03-31T10:35:56.424Z,3.35
2023-03-31T10:38:37.645Z,2.80
2023-03-31T10:41:07.957Z,3.03
2023-03-31T10:43:51.636Z,4.30
2023-03-31T10:46:21.122Z,4.70
2023-03-31T10:48:48.322Z,3.20
2023-03-31T10:51:19.577Z,4.05
2023-03-31T10:53:51.894Z,2.60
2023-03-31T10:56:38.856Z,2.90
2023-03-31T10:59:24.020Z,2.38
2023-03-31T11:02:24.605Z,2.75
2023-03-31T11:05:23.413Z,2.40
2023-03-31T11:08:12.657Z,3.05
2023-03-31T11:11:27.734Z,2.17
2023-03-31T11:14:22.460Z,3.83
2023-03-31T11:16:59.275Z,4.97
2023-03-31T11:20:02.346Z,2.80
2023-03-31T11:22:48.637Z,2.65
2023-03-31T11:28:32.258Z,3.05
2023-03-31T11:31:17.858Z,2.28
2023-03-31T11:34:00.031Z,2.30
2023-03-31T11:36:46.726Z,2.28
2023-03-31T11:39:47.649Z,2.53
2023-03-31T11:42:26.923Z,2.13
2023-03-31T11:45:02.494Z,2.35
2023-03-31T11:47:44.905Z,3.45
2023-03-31T11:50:17.730Z,2.72
2023-03-31T11:52:58.481Z,3.40
2023-03-31T11:55:29.353Z,3.95
2023-03-31T11:58:21.132Z,2.85
2023-03-31T12:00:54.456Z,3.50
2023-03-31T12:03:41.901Z,4.20
2023-03-31T12:09:23.906Z,3.78
2023-03-31T12:12:35.579Z,1.92
2023-03-31T12:15:20.867Z,1.60
2023-03-31T12:17:57.092Z,2.72
2023-03-31T12:20:34.941Z,1.70
2023-03-31T12:23:09.200Z,2.78
2023-03-31T12:26:14.152Z,2.13
2023-03-31T12:28:44.562Z,2.85
2023-03-31T12:31:21.991Z,3.40
2023-03-31T12:34:07.459Z,2.88
2023-03-31T12:37:01.839Z,4.00
2023-03-31T12:40:00.520Z,1.90
2023-03-31T12:42:33.925Z,1.73
2023-03-31T12:45:19.413Z,1.67
2023-03-31T12:48:04.936Z,1.48
2023-03-31T12:51:10.473Z,1.30
2023-03-31T12:54:15.404Z,1.20
2023-03-31T12:57:06.556Z,2.08
2023-03-31T12:59:39.721Z,1.00
2023-03-31T13:02:11.315Z,1.30
2023-03-31T13:04:41.341Z,2.13
2023-03-31T13:07:28.127Z,2.20
2023-03-31T13:10:22.200Z,1.33
2023-03-31T13:13:14.977Z,1.00
2023-03-31T13:15:52.744Z,1.42
2023-03-31T13:18:22.532Z,1.38
2023-03-31T13:21:08.024Z,1.27
2023-03-31T13:23:37.858Z,1.10
2023-03-31T13:26:25.894Z,1.05
2023-03-31T13:29:17.089Z,1.00
2023-03-31T13:32:02.951Z,1.10
2023-03-31T13:34:36.369Z,1.00
2023-03-31T13:37:33.690Z,1.00
2023-03-31T13:43:09.708Z,1.25
2023-03-31T13:46:18.088Z,1.23
2023-03-31T13:49:03.467Z,3.00
2023-03-31T13:51:55.642Z,1.63
2023-03-31T13:54:25.658Z,1.48
2023-03-31T13:57:19.034Z,1.27
2023-03-31T14:00:01.241Z,1.17
2023-03-31T14:02:28.692Z,1.85
2023-03-31T14:05:31.656Z,1.35
2023-03-31T14:08:30.293Z,1.20
2023-03-31T14:11:24.694Z,1.70
2023-03-31T14:14:16.814Z,1.35
2023-03-31T14:16:58.489Z,1.40
2023-03-31T14:19:56.784Z,1.50
2023-03-31T14:22:45.188Z,1.80
2023-03-31T14:25:28.463Z,1.13
2023-03-31T14:28:18.746Z,1.58
2023-03-31T14:31:01.722Z,1.30
2023-03-31T14:33:32.725Z,1.50
2023-03-31T14:36:06.306Z,3.30
2023-03-31T14:38:45.358Z,2.80
2023-03-31T14:41:30.064Z,2.05
2023-03-31T14:44:06.475Z,1.42
2023-03-31T14:46:38.615Z,1.52
2023-03-31T14:49:27.444Z,1.98
2023-03-31T14:51:59.430Z,1.92
2023-03-31T14:57:30.674Z,1.65
2023-03-31T15:00:09.439Z,2.75
2023-03-31T15:02:47.044Z,6.88
2023-03-31T15:08:17.676Z,3.33
2023-03-31T15:10:58.879Z,2.08
2023-03-31T15:13:46.632Z,2.38
2023-03-31T15:16:43.851Z,3.28
2023-03-31T15:19:26.763Z,2.08
2023-03-31T15:22:03.519Z,2.30
2023-03-31T15:24:31.970Z,6.32
2023-03-31T15:27:10.336Z,4.95
2023-03-31T15:29:52.273Z,2.40
2023-03-31T15:32:30.772Z,2.53
2023-03-31T15:37:47.480Z,2.40
2023-03-31T15:40:29.659Z,1.88
2023-03-31T15:43:24.453Z,2.00
2023-03-31T15:46:02.785Z,2.55
2023-03-31T15:49:07.240Z,2.60
2023-03-31T15:51:41.395Z,2.10
2023-03-31T15:54:43.428Z,1.48
2023-03-31T15:57:20.105Z,1.70
2023-03-31T16:02:49.406Z,1.80
2023-03-31T16:05:32.379Z,1.80
2023-03-31T16:08:11.596Z,1.70
2023-03-31T16:10:45.221Z,1.70
2023-03-31T16:13:18.281Z,2.83
2023-03-31T16:15:49.074Z,3.35
2023-03-31T16:18:24.594Z,2.40
2023-03-31T16:21:13.888Z,1.80
2023-03-31T16:23:41.696Z,1.58
2023-03-31T16:28:49.693Z,1.65
2023-03-31T16:31:37.090Z,2.42
2023-03-31T16:36:32.893Z,2.20
2023-03-31T16:39:02.317Z,1.80
2023-03-31T16:41:29.826Z,1.70
2023-03-31T16:43:56.976Z,1.65
2023-03-31T16:46:25.226Z,1.92
2023-03-31T16:49:11.914Z,1.80
2023-03-31T16:51:42.510Z,2.05
2023-03-31T16:54:22.121Z,1.70
2023-03-31T16:56:59.552Z,2.85
2023-03-31T16:59:53.566Z,2.80
2023-03-31T17:02:21.827Z,3.95
2023-03-31T17:04:59.692Z,4.68
2023-03-31T17:07:36.844Z,4.35
2023-03-31T17:10:07.312Z,4.90
2023-03-31T17:12:45.862Z,4.63
2023-03-31T17:15:25.685Z,4.60
2023-03-31T17:18:00.772Z,4.13
2023-03-31T17:20:47.550Z,3.38
2023-03-31T17:23:35.288Z,3.50
2023-03-31T17:29:10.015Z,3.47
2023-03-31T17:34:34.594Z,6.18
2023-03-31T17:37:15.761Z,4.40
2023-03-31T17:39:44.561Z,4.85
2023-03-31T17:42:27.255Z,5.15
2023-03-31T17:48:31.501Z,5.63
2023-03-31T18:00:58.514Z,3.92
2023-03-31T18:03:51.915Z,3.33
2023-03-31T18:09:38.796Z,3.10
2023-03-31T18:15:09.896Z,3.90
2023-03-31T18:18:25.210Z,4.20
2023-03-31T18:20:57.081Z,6.20
2023-03-31T18:23:48.097Z,5.82
2023-03-31T18:33:31.852Z,4.45
2023-03-31T18:39:17.379Z,3.60
2023-03-31T18:44:45.598Z,2.90
2023-03-31T18:50:27.775Z,3.78
2023-03-31T18:56:11.168Z,3.42
2023-03-31T18:59:09.706Z,3.55
2023-03-31T19:02:52.638Z,3.38
2023-03-31T19:11:35.094Z,2.88
2023-03-31T19:17:40.915Z,2.53
2023-03-31T19:24:03.937Z,2.97
2023-03-31T19:32:37.809Z,2.70
2023-03-31T20:02:56.256Z,3.20
2023-03-31T20:06:11.544Z,3.45
2023-03-31T20:09:34.247Z,3.10
2023-03-31T20:12:14.343Z,2.78
2023-03-31T20:15:05.251Z,3.30
2023-03-31T20:24:10.738Z,3.60
2023-03-31T20:26:43.685Z,2.60
2023-03-31T20:29:21.343Z,2.85
2023-03-31T20:32:34.916Z,2.63
2023-03-31T20:39:05.677Z,2.92
2023-03-31T20:42:08.034Z,2.95
2023-03-31T20:44:54.633Z,3.63
2023-03-31T20:47:56.343Z,3.20
2023-03-31T20:50:32.869Z,3.35
2023-03-31T20:56:05.989Z,3.20
2023-03-31T20:59:32.304Z,3.00
2023-03-31T21:02:06.870Z,3.33
2023-03-31T21:04:38.406Z,9.07
2023-03-31T21:07:59.846Z,7.63
2023-03-31T21:13:23.889Z,6.95
2023-03-31T21:16:00.863Z,27.60
2023-03-31T21:18:42.075Z,13.27
2023-03-31T21:21:49.941Z,8.05
2023-03-31T21:27:43.614Z,11.48
2023-03-31T21:37:03.582Z,19.55
2023-03-31T21:39:41.149Z,12.20
2023-03-31T21:43:07.957Z,12.27
2023-03-31T21:57:45.182Z,5.10
2023-03-31T21:57:59.415Z,13.90
2023-03-31T22:03:22.322Z,10.43
2023-03-31T22:08:48.894Z,4.50
2023-03-31T22:14:36.710Z,5.05
2023-03-31T22:17:53.951Z,3.80
2023-03-31T22:34:05.506Z,3.13
2023-03-31T22:40:02.033Z,3.92
2023-03-31T22:43:13.936Z,3.00
2023-03-31T22:45:59.949Z,3.47
2023-03-31T22:48:42.630Z,3.72
2023-03-31T22:51:15.476Z,4.82
2023-03-31T22:54:41.509Z,3.40
2023-03-31T22:57:40.532Z,4.60
2023-03-31T23:00:44.157Z,5.25
2023-03-31T23:06:23.884Z,6.72
2023-03-31T23:09:23.799Z,6.55
2023-03-31T23:12:12.988Z,9.07
2023-03-31T23:15:36.579Z,8.90
2023-03-31T23:18:25.573Z,8.60
2023-03-31T23:20:58.877Z,8.25
2023-03-31T23:23:32.212Z,11.50
2023-03-31T23:26:33.584Z,7.45
2023-03-31T23:29:49.184Z,15.20
2023-03-31T23:32:17.730Z,11.40
2023-03-31T23:37:51.669Z,7.75
2023-03-31T23:41:37.564Z,7.75
2023-03-31T23:44:04.465Z,7.55
2023-03-31T23:49:51.895Z,4.23
2023-03-31T23:55:13.943Z,4.10
2023-03-31T23:57:42.826Z,4.00
